sensor_id;sensor_type;location;lat;lon;timestamp;pressure;altitude;pressure_sealevel;temperature;humidity
20037;BME280;10179;42.640;23.312;2023-06-22T00:00:51;94145.91;;;24.48;43.48
20037;BME280;10179;42.640;23.312;2023-06-22T00:03:20;94099.56;;;24.15;43.91
20037;BME280;10179;42.640;23.312;2023-06-22T00:05:47;94107.28;;;24.17;43.95
20037;BME280;10179;42.640;23.312;2023-06-22T00:08:13;94143.59;;;24.28;44.13
20037;BME280;10179;42.640;23.312;2023-06-22T00:10:39;94151.16;;;24.26;44.10
20037;BME280;10179;42.640;23.312;2023-06-22T00:13:08;94116.72;;;24.00;44.22
20037;BME280;10179;42.640;23.312;2023-06-22T00:15:34;94125.50;;;24.06;44.24
20037;BME280;10179;42.640;23.312;2023-06-22T00:18:00;94130.06;;;24.05;44.78
20037;BME280;10179;42.640;23.312;2023-06-22T00:20:26;94134.84;;;24.09;44.81
20037;BME280;10179;42.640;23.312;2023-06-22T00:22:53;94135.44;;;24.05;44.74
20037;BME280;10179;42.640;23.312;2023-06-22T00:25:19;94075.00;;;23.62;44.55
20037;BME280;10179;42.640;23.312;2023-06-22T00:27:44;94080.75;;;23.74;44.73
20037;BME280;10179;42.640;23.312;2023-06-22T00:30:10;93947.22;;;22.78;44.34
20037;BME280;10179;42.640;23.312;2023-06-22T00:32:36;94110.53;;;23.86;44.48
20037;BME280;10179;42.640;23.312;2023-06-22T00:35:01;94112.53;;;23.80;44.38
20037;BME280;10179;42.640;23.312;2023-06-22T00:37:27;94108.34;;;23.74;44.69
20037;BME280;10179;42.640;23.312;2023-06-22T00:39:55;93968.06;;;22.81;44.79
20037;BME280;10179;42.640;23.312;2023-06-22T00:42:20;94047.66;;;23.32;44.86
20037;BME280;10179;42.640;23.312;2023-06-22T00:44:46;94115.09;;;23.72;45.13
20037;BME280;10179;42.640;23.312;2023-06-22T00:47:13;94100.84;;;23.57;45.05
20037;BME280;10179;42.640;23.312;2023-06-22T00:49:40;94061.53;;;23.34;45.12
20037;BME280;10179;42.640;23.312;2023-06-22T00:52:06;94112.50;;;23.67;45.04
20037;BME280;10179;42.640;23.312;2023-06-22T00:54:42;94107.72;;;23.64;45.26
20037;BME280;10179;42.640;23.312;2023-06-22T00:57:12;94090.97;;;23.39;45.20
20037;BME280;10179;42.640;23.312;2023-06-22T00:59:44;94028.13;;;23.13;45.46
20037;BME280;10179;42.640;23.312;2023-06-22T01:02:10;94082.41;;;23.37;45.50
20037;BME280;10179;42.640;23.312;2023-06-22T01:04:37;94059.91;;;23.19;45.32
20037;BME280;10179;42.640;23.312;2023-06-22T01:10:08;94105.38;;;23.43;45.14
20037;BME280;10179;42.640;23.312;2023-06-22T01:12:38;94128.84;;;23.65;45.15
20037;BME280;10179;42.640;23.312;2023-06-22T01:15:31;94087.00;;;23.50;45.11
20037;BME280;10179;42.640;23.312;2023-06-22T01:17:59;94093.06;;;23.42;45.44
20037;BME280;10179;42.640;23.312;2023-06-22T01:20:27;94102.09;;;23.46;45.48
20037;BME280;10179;42.640;23.312;2023-06-22T01:25:57;94066.06;;;23.20;45.35
20037;BME280;10179;42.640;23.312;2023-06-22T01:30:57;93950.47;;;22.42;45.84
20037;BME280;10179;42.640;23.312;2023-06-22T01:33:37;94103.84;;;23.37;45.77
20037;BME280;10179;42.640;23.312;2023-06-22T01:36:04;94090.13;;;23.25;45.88
20037;BME280;10179;42.640;23.312;2023-06-22T01:38:32;94135.28;;;23.50;45.76
20037;BME280;10179;42.640;23.312;2023-06-22T01:40:59;94079.16;;;23.07;46.03
20037;BME280;10179;42.640;23.312;2023-06-22T01:43:26;94102.53;;;23.21;46.08
20037;BME280;10179;42.640;23.312;2023-06-22T01:45:54;94148.56;;;23.42;45.92
20037;BME280;10179;42.640;23.312;2023-06-22T01:48:20;94116.34;;;23.28;46.15
20037;BME280;10179;42.640;23.312;2023-06-22T01:50:47;94078.72;;;23.00;45.96
20037;BME280;10179;42.640;23.312;2023-06-22T01:53:12;94139.22;;;23.39;46.42
20037;BME280;10179;42.640;23.312;2023-06-22T01:55:38;93999.19;;;22.44;46.74
20037;BME280;10179;42.640;23.312;2023-06-22T01:58:03;94145.16;;;23.36;46.25
20037;BME280;10179;42.640;23.312;2023-06-22T02:00:33;94067.19;;;22.81;46.36
20037;BME280;10179;42.640;23.312;2023-06-22T02:03:10;94144.31;;;23.54;45.79
20037;BME280;10179;42.640;23.312;2023-06-22T02:05:38;94151.69;;;23.30;46.27
20037;BME280;10179;42.640;23.312;2023-06-22T02:08:10;94091.72;;;22.88;46.39
20037;BME280;10179;42.640;23.312;2023-06-22T02:10:38;94160.41;;;23.22;46.86
20037;BME280;10179;42.640;23.312;2023-06-22T02:13:07;94161.34;;;23.12;47.13
20037;BME280;10179;42.640;23.312;2023-06-22T02:15:34;94098.31;;;22.77;47.17
20037;BME280;10179;42.640;23.312;2023-06-22T02:18:00;94148.94;;;23.16;47.34
20037;BME280;10179;42.640;23.312;2023-06-22T02:20:26;94103.19;;;22.94;47.49
20037;BME280;10179;42.640;23.312;2023-06-22T02:22:51;94093.69;;;22.82;47.50
20037;BME280;10179;42.640;23.312;2023-06-22T02:25:17;94078.03;;;22.71;47.47
20037;BME280;10179;42.640;23.312;2023-06-22T02:27:42;94081.53;;;22.71;47.81
20037;BME280;10179;42.640;23.312;2023-06-22T02:30:08;94128.53;;;23.01;47.65
20037;BME280;10179;42.640;23.312;2023-06-22T02:32:37;94076.19;;;22.71;47.86
20037;BME280;10179;42.640;23.312;2023-06-22T02:35:02;94142.00;;;23.15;48.09
20037;BME280;10179;42.640;23.312;2023-06-22T02:37:31;94089.13;;;22.83;48.02
20037;BME280;10179;42.640;23.312;2023-06-22T02:39:56;94091.88;;;22.78;48.18
20037;BME280;10179;42.640;23.312;2023-06-22T02:42:22;94137.75;;;23.14;48.04
20037;BME280;10179;42.640;23.312;2023-06-22T02:44:47;94143.88;;;23.15;48.21
20037;BME280;10179;42.640;23.312;2023-06-22T02:47:13;94064.50;;;22.62;48.39
20037;BME280;10179;42.640;23.312;2023-06-22T02:49:38;94027.41;;;22.36;48.43
20037;BME280;10179;42.640;23.312;2023-06-22T02:52:04;94097.38;;;22.68;48.41
20037;BME280;10179;42.640;23.312;2023-06-22T02:54:29;94130.78;;;22.94;48.51
20037;BME280;10179;42.640;23.312;2023-06-22T02:56:55;94149.41;;;23.04;48.99
20037;BME280;10179;42.640;23.312;2023-06-22T02:59:20;94117.81;;;22.82;48.69
20037;BME280;10179;42.640;23.312;2023-06-22T03:01:50;94121.31;;;22.78;48.87
20037;BME280;10179;42.640;23.312;2023-06-22T03:04:15;94152.16;;;22.99;49.04
20037;BME280;10179;42.640;23.312;2023-06-22T03:06:41;94095.34;;;22.59;49.35
20037;BME280;10179;42.640;23.312;2023-06-22T03:09:07;94041.19;;;22.25;49.28
20037;BME280;10179;42.640;23.312;2023-06-22T03:11:33;94151.00;;;22.81;49.68
20037;BME280;10179;42.640;23.312;2023-06-22T03:14:00;94154.50;;;22.82;49.65
20037;BME280;10179;42.640;23.312;2023-06-22T03:16:25;94163.81;;;22.84;50.22
20037;BME280;10179;42.640;23.312;2023-06-22T03:18:51;94149.28;;;22.72;50.44
20037;BME280;10179;42.640;23.312;2023-06-22T03:21:19;94162.59;;;22.77;50.38
20037;BME280;10179;42.640;23.312;2023-06-22T03:23:44;94171.44;;;22.77;50.21
20037;BME280;10179;42.640;23.312;2023-06-22T03:26:10;94170.13;;;22.75;50.64
20037;BME280;10179;42.640;23.312;2023-06-22T03:28:36;94087.66;;;22.34;50.21
20037;BME280;10179;42.640;23.312;2023-06-22T03:31:03;94127.56;;;22.54;50.39
20037;BME280;10179;42.640;23.312;2023-06-22T03:33:28;94178.50;;;22.92;50.18
20037;BME280;10179;42.640;23.312;2023-06-22T03:35:54;94180.47;;;23.05;50.14
20037;BME280;10179;42.640;23.312;2023-06-22T03:38:19;94031.66;;;22.13;50.24
20037;BME280;10179;42.640;23.312;2023-06-22T03:40:45;94181.41;;;23.15;50.30
20037;BME280;10179;42.640;23.312;2023-06-22T03:43:10;94183.22;;;23.19;49.77
20037;BME280;10179;42.640;23.312;2023-06-22T03:45:35;94095.34;;;22.59;49.63
20037;BME280;10179;42.640;23.312;2023-06-22T03:48:01;94190.41;;;23.24;49.75
20037;BME280;10179;42.640;23.312;2023-06-22T03:50:27;94204.22;;;23.31;49.38
20037;BME280;10179;42.640;23.312;2023-06-22T03:52:52;94130.84;;;22.89;49.52
20037;BME280;10179;42.640;23.312;2023-06-22T03:55:19;94176.47;;;23.22;49.53
20037;BME280;10179;42.640;23.312;2023-06-22T03:57:45;94182.84;;;23.26;49.58
20037;BME280;10179;42.640;23.312;2023-06-22T04:00:11;94203.41;;;23.49;49.44
20037;BME280;10179;42.640;23.312;2023-06-22T04:02:37;94145.56;;;23.10;49.47
20037;BME280;10179;42.640;23.312;2023-06-22T04:05:02;94186.31;;;23.45;49.15
20037;BME280;10179;42.640;23.312;2023-06-22T04:07:28;94160.97;;;23.19;49.08
20037;BME280;10179;42.640;23.312;2023-06-22T04:09:53;94198.22;;;23.39;48.97
20037;BME280;10179;42.640;23.312;2023-06-22T04:12:18;94148.50;;;23.28;48.79
20037;BME280;10179;42.640;23.312;2023-06-22T04:14:46;94119.25;;;23.13;49.04
20037;BME280;10179;42.640;23.312;2023-06-22T04:17:13;94106.66;;;23.13;48.97
20037;BME280;10179;42.640;23.312;2023-06-22T04:19:40;94191.63;;;23.83;48.72
20037;BME280;10179;42.640;23.312;2023-06-22T04:22:06;94041.41;;;23.04;48.70
20037;BME280;10179;42.640;23.312;2023-06-22T04:24:36;94163.63;;;23.89;48.23
20037;BME280;10179;42.640;23.312;2023-06-22T04:27:03;94169.94;;;24.26;47.82
20037;BME280;10179;42.640;23.312;2023-06-22T04:29:30;94152.75;;;24.27;47.44
20037;BME280;10179;42.640;23.312;2023-06-22T04:32:00;94167.69;;;24.61;47.25
20037;BME280;10179;42.640;23.312;2023-06-22T04:34:29;94164.09;;;24.79;47.37
20037;BME280;10179;42.640;23.312;2023-06-22T04:36:55;94174.41;;;24.99;47.12
20037;BME280;10179;42.640;23.312;2023-06-22T04:39:21;94167.59;;;25.16;47.07
20037;BME280;10179;42.640;23.312;2023-06-22T04:41:50;94172.53;;;25.36;46.71
20037;BME280;10179;42.640;23.312;2023-06-22T04:44:18;94170.47;;;25.56;46.45
20037;BME280;10179;42.640;23.312;2023-06-22T04:46:58;94174.16;;;25.82;45.21
20037;BME280;10179;42.640;23.312;2023-06-22T04:49:30;94177.09;;;25.94;44.23
20037;BME280;10179;42.640;23.312;2023-06-22T04:52:11;94179.63;;;26.22;43.22
20037;BME280;10179;42.640;23.312;2023-06-22T04:54:38;94183.78;;;26.37;43.30
20037;BME280;10179;42.640;23.312;2023-06-22T04:57:14;94185.31;;;26.52;43.68
20037;BME280;10179;42.640;23.312;2023-06-22T04:59:41;94140.00;;;26.23;43.77
20037;BME280;10179;42.640;23.312;2023-06-22T05:02:08;94103.91;;;25.92;44.16
20037;BME280;10179;42.640;23.312;2023-06-22T05:04:34;94135.06;;;26.16;44.38
20037;BME280;10179;42.640;23.312;2023-06-22T05:07:04;94171.41;;;26.36;44.59
20037;BME280;10179;42.640;23.312;2023-06-22T05:09:30;94172.84;;;26.33;44.62
20037;BME280;10179;42.640;23.312;2023-06-22T05:11:55;94156.59;;;26.16;44.50
20037;BME280;10179;42.640;23.312;2023-06-22T05:14:24;94175.28;;;26.12;43.73
20037;BME280;10179;42.640;23.312;2023-06-22T05:16:50;94187.69;;;26.22;44.09
20037;BME280;10179;42.640;23.312;2023-06-22T05:19:17;94123.19;;;25.86;43.90
20037;BME280;10179;42.640;23.312;2023-06-22T05:21:42;94198.94;;;26.47;43.67
20037;BME280;10179;42.640;23.312;2023-06-22T05:24:08;94182.09;;;26.50;43.39
20037;BME280;10179;42.640;23.312;2023-06-22T05:26:34;94186.25;;;26.56;43.21
20037;BME280;10179;42.640;23.312;2023-06-22T05:29:00;94203.72;;;26.67;43.20
20037;BME280;10179;42.640;23.312;2023-06-22T05:31:26;94156.63;;;26.56;42.43
20037;BME280;10179;42.640;23.312;2023-06-22T05:33:53;94206.84;;;27.09;42.58
20037;BME280;10179;42.640;23.312;2023-06-22T05:36:19;94134.66;;;26.88;41.62
20037;BME280;10179;42.640;23.312;2023-06-22T05:38:47;94145.19;;;27.16;40.84
20037;BME280;10179;42.640;23.312;2023-06-22T05:41:13;94214.25;;;27.78;40.95
20037;BME280;10179;42.640;23.312;2023-06-22T05:43:39;94224.41;;;27.90;40.95
20037;BME280;10179;42.640;23.312;2023-06-22T05:46:05;94177.56;;;27.68;40.42
20037;BME280;10179;42.640;23.312;2023-06-22T05:48:30;94164.06;;;27.59;39.85
20037;BME280;10179;42.640;23.312;2023-06-22T05:50:59;94234.84;;;28.17;40.53
20037;BME280;10179;42.640;23.312;2023-06-22T05:53:24;94209.41;;;28.18;39.36
20037;BME280;10179;42.640;23.312;2023-06-22T05:55:50;94204.59;;;28.33;39.52
20037;BME280;10179;42.640;23.312;2023-06-22T05:58:15;94180.13;;;28.38;39.43
20037;BME280;10179;42.640;23.312;2023-06-22T06:00:41;94238.00;;;28.84;38.97
20037;BME280;10179;42.640;23.312;2023-06-22T06:03:09;94233.16;;;28.98;39.03
20037;BME280;10179;42.640;23.312;2023-06-22T06:05:35;94235.81;;;29.15;38.56
20037;BME280;10179;42.640;23.312;2023-06-22T06:08:02;94128.53;;;28.60;38.32
20037;BME280;10179;42.640;23.312;2023-06-22T06:10:29;94174.31;;;28.95;38.08
20037;BME280;10179;42.640;23.312;2023-06-22T06:12:55;94178.28;;;28.97;38.72
20037;BME280;10179;42.640;23.312;2023-06-22T06:15:23;94214.66;;;29.38;37.88
20037;BME280;10179;42.640;23.312;2023-06-22T06:17:50;94216.50;;;29.46;37.81
20037;BME280;10179;42.640;23.312;2023-06-22T06:20:19;94205.16;;;29.53;37.50
20037;BME280;10179;42.640;23.312;2023-06-22T06:22:45;94147.91;;;29.21;37.41
20037;BME280;10179;42.640;23.312;2023-06-22T06:25:12;94166.06;;;29.42;37.35
20037;BME280;10179;42.640;23.312;2023-06-22T06:27:45;94211.63;;;29.82;37.40
20037;BME280;10179;42.640;23.312;2023-06-22T06:30:12;94201.28;;;29.96;37.17
20037;BME280;10179;42.640;23.312;2023-06-22T06:32:38;94186.50;;;29.93;37.17
20037;BME280;10179;42.640;23.312;2023-06-22T06:35:07;94112.97;;;29.49;36.69
20037;BME280;10179;42.640;23.312;2023-06-22T06:37:36;94226.16;;;30.31;36.89
20037;BME280;10179;42.640;23.312;2023-06-22T06:40:06;94190.28;;;30.13;36.53
20037;BME280;10179;42.640;23.312;2023-06-22T06:42:35;94213.19;;;30.49;36.75
20037;BME280;10179;42.640;23.312;2023-06-22T06:45:04;94197.94;;;30.45;36.71
20037;BME280;10179;42.640;23.312;2023-06-22T06:47:30;94207.13;;;30.64;36.99
20037;BME280;10179;42.640;23.312;2023-06-22T06:49:56;94202.88;;;30.76;37.03
20037;BME280;10179;42.640;23.312;2023-06-22T06:52:21;94162.56;;;30.53;36.35
20037;BME280;10179;42.640;23.312;2023-06-22T06:54:47;94160.09;;;30.60;36.04
20037;BME280;10179;42.640;23.312;2023-06-22T06:57:12;94194.06;;;30.79;36.69
20037;BME280;10179;42.640;23.312;2023-06-22T06:59:38;94184.50;;;30.60;36.51
20037;BME280;10179;42.640;23.312;2023-06-22T07:02:04;94204.84;;;30.66;36.60
20037;BME280;10179;42.640;23.312;2023-06-22T07:04:30;94179.78;;;30.57;37.32
20037;BME280;10179;42.640;23.312;2023-06-22T07:06:55;94151.31;;;30.51;37.64
20037;BME280;10179;42.640;23.312;2023-06-22T07:09:21;94131.41;;;30.59;36.90
20037;BME280;10179;42.640;23.312;2023-06-22T07:11:46;94143.41;;;30.83;36.98
20037;BME280;10179;42.640;23.312;2023-06-22T07:14:12;94135.28;;;30.83;36.25
20037;BME280;10179;42.640;23.312;2023-06-22T07:16:37;94112.44;;;30.72;35.97
20037;BME280;10179;42.640;23.312;2023-06-22T07:19:02;94180.13;;;31.05;35.46
20037;BME280;10179;42.640;23.312;2023-06-22T07:21:28;94187.25;;;31.09;35.65
20037;BME280;10179;42.640;23.312;2023-06-22T07:23:53;94202.59;;;31.30;35.64
20037;BME280;10179;42.640;23.312;2023-06-22T07:26:19;94204.44;;;31.38;36.02
20037;BME280;10179;42.640;23.312;2023-06-22T07:28:44;94203.06;;;31.44;34.75
20037;BME280;10179;42.640;23.312;2023-06-22T07:31:10;94133.31;;;31.08;35.60
20037;BME280;10179;42.640;23.312;2023-06-22T07:33:35;94131.59;;;31.16;36.06
20037;BME280;10179;42.640;23.312;2023-06-22T07:36:01;94152.28;;;31.32;35.31
20037;BME280;10179;42.640;23.312;2023-06-22T07:38:27;94141.88;;;31.22;35.55
20037;BME280;10179;42.640;23.312;2023-06-22T07:40:53;94208.31;;;31.65;35.20
20037;BME280;10179;42.640;23.312;2023-06-22T07:43:19;94208.19;;;31.74;35.30
20037;BME280;10179;42.640;23.312;2023-06-22T07:45:50;94130.69;;;31.11;35.29
20037;BME280;10179;42.640;23.312;2023-06-22T07:48:22;94208.69;;;31.51;35.03
20037;BME280;10179;42.640;23.312;2023-06-22T07:50:48;94201.59;;;31.34;34.92
20037;BME280;10179;42.640;23.312;2023-06-22T07:53:13;94219.50;;;31.35;35.32
20037;BME280;10179;42.640;23.312;2023-06-22T07:55:38;94200.81;;;31.22;35.66
20037;BME280;10179;42.640;23.312;2023-06-22T07:58:04;94202.84;;;31.37;35.16
20037;BME280;10179;42.640;23.312;2023-06-22T08:00:29;94125.28;;;30.99;35.48
20037;BME280;10179;42.640;23.312;2023-06-22T08:02:55;94202.25;;;31.56;35.45
20037;BME280;10179;42.640;23.312;2023-06-22T08:05:20;94161.19;;;31.45;35.51
20037;BME280;10179;42.640;23.312;2023-06-22T08:07:46;94168.19;;;31.46;35.18
20037;BME280;10179;42.640;23.312;2023-06-22T08:10:11;94160.19;;;31.66;34.95
20037;BME280;10179;42.640;23.312;2023-06-22T08:12:38;94175.50;;;31.86;35.50
20037;BME280;10179;42.640;23.312;2023-06-22T08:15:04;94198.16;;;32.18;35.00
20037;BME280;10179;42.640;23.312;2023-06-22T08:17:30;94187.03;;;32.39;35.23
20037;BME280;10179;42.640;23.312;2023-06-22T08:19:56;94183.84;;;32.65;34.00
20037;BME280;10179;42.640;23.312;2023-06-22T08:22:22;94176.72;;;32.61;32.61
20037;BME280;10179;42.640;23.312;2023-06-22T08:24:47;94133.34;;;32.36;33.10
20037;BME280;10179;42.640;23.312;2023-06-22T08:27:13;94183.56;;;32.86;32.76
20037;BME280;10179;42.640;23.312;2023-06-22T08:29:40;94176.97;;;33.03;32.26
20037;BME280;10179;42.640;23.312;2023-06-22T08:32:08;94165.38;;;33.06;31.52
20037;BME280;10179;42.640;23.312;2023-06-22T08:34:34;94169.69;;;32.91;32.28
20037;BME280;10179;42.640;23.312;2023-06-22T08:37:00;94144.06;;;32.61;32.83
20037;BME280;10179;42.640;23.312;2023-06-22T08:39:25;94182.50;;;32.75;33.45
20037;BME280;10179;42.640;23.312;2023-06-22T08:41:51;94172.25;;;32.52;34.18
20037;BME280;10179;42.640;23.312;2023-06-22T08:44:18;94180.16;;;32.42;34.23
20037;BME280;10179;42.640;23.312;2023-06-22T08:46:44;94120.28;;;31.82;34.67
20037;BME280;10179;42.640;23.312;2023-06-22T08:49:10;94155.88;;;32.05;34.55
20037;BME280;10179;42.640;23.312;2023-06-22T08:51:35;94155.88;;;32.21;34.86
20037;BME280;10179;42.640;23.312;2023-06-22T08:54:01;94180.25;;;32.77;34.33
20037;BME280;10179;42.640;23.312;2023-06-22T08:56:27;94156.78;;;33.04;33.17
20037;BME280;10179;42.640;23.312;2023-06-22T08:58:52;94177.34;;;33.53;33.18
20037;BME280;10179;42.640;23.312;2023-06-22T09:01:18;94161.25;;;33.86;32.26
20037;BME280;10179;42.640;23.312;2023-06-22T09:03:44;94159.22;;;34.22;31.67
20037;BME280;10179;42.640;23.312;2023-06-22T09:06:20;94163.13;;;34.67;30.75
20037;BME280;10179;42.640;23.312;2023-06-22T09:08:46;94160.56;;;35.01;29.66
20037;BME280;10179;42.640;23.312;2023-06-22T09:11:12;94147.41;;;35.10;29.16
20037;BME280;10179;42.640;23.312;2023-06-22T09:13:37;94085.28;;;34.77;29.40
20037;BME280;10179;42.640;23.312;2023-06-22T09:16:03;94141.00;;;34.99;28.73
20037;BME280;10179;42.640;23.312;2023-06-22T09:18:28;94133.66;;;34.76;27.89
20037;BME280;10179;42.640;23.312;2023-06-22T09:20:53;94149.28;;;34.79;28.82
20037;BME280;10179;42.640;23.312;2023-06-22T09:23:19;94167.59;;;35.02;29.92
20037;BME280;10179;42.640;23.312;2023-06-22T09:25:44;94143.94;;;34.86;28.48
20037;BME280;10179;42.640;23.312;2023-06-22T09:28:12;94167.94;;;35.00;28.97
20037;BME280;10179;42.640;23.312;2023-06-22T09:30:37;94130.84;;;34.50;28.84
20037;BME280;10179;42.640;23.312;2023-06-22T09:33:03;94176.97;;;34.55;29.18
20037;BME280;10179;42.640;23.312;2023-06-22T09:35:28;94158.94;;;34.27;29.33
20037;BME280;10179;42.640;23.312;2023-06-22T09:37:54;94155.94;;;34.13;29.84
20037;BME280;10179;42.640;23.312;2023-06-22T09:40:19;94176.56;;;34.33;28.98
20037;BME280;10179;42.640;23.312;2023-06-22T09:42:45;94131.94;;;34.22;29.14
20037;BME280;10179;42.640;23.312;2023-06-22T09:45:10;94149.03;;;34.42;28.02
20037;BME280;10179;42.640;23.312;2023-06-22T09:47:36;94176.03;;;34.47;27.81
20037;BME280;10179;42.640;23.312;2023-06-22T09:50:02;94179.13;;;34.46;28.09
20037;BME280;10179;42.640;23.312;2023-06-22T09:52:27;94146.91;;;34.32;28.12
20037;BME280;10179;42.640;23.312;2023-06-22T09:54:53;94171.53;;;34.55;28.14
20037;BME280;10179;42.640;23.312;2023-06-22T09:57:18;94149.69;;;34.55;28.07
20037;BME280;10179;42.640;23.312;2023-06-22T09:59:43;94117.53;;;34.44;27.72
20037;BME280;10179;42.640;23.312;2023-06-22T10:02:09;94106.59;;;34.44;27.35
20037;BME280;10179;42.640;23.312;2023-06-22T10:04:35;94129.97;;;34.65;27.43
20037;BME280;10179;42.640;23.312;2023-06-22T10:07:01;94140.00;;;34.84;26.74
20037;BME280;10179;42.640;23.312;2023-06-22T10:09:27;94158.84;;;34.92;27.77
20037;BME280;10179;42.640;23.312;2023-06-22T10:11:53;94155.88;;;35.01;27.15
20037;BME280;10179;42.640;23.312;2023-06-22T10:14:18;94132.94;;;35.06;26.93
20037;BME280;10179;42.640;23.312;2023-06-22T10:16:44;94117.09;;;34.92;26.80
20037;BME280;10179;42.640;23.312;2023-06-22T10:19:09;94152.31;;;35.24;26.52
20037;BME280;10179;42.640;23.312;2023-06-22T10:21:35;94110.69;;;35.04;27.39
20037;BME280;10179;42.640;23.312;2023-06-22T10:24:01;94109.94;;;35.07;26.37
20037;BME280;10179;42.640;23.312;2023-06-22T10:26:34;94105.94;;;35.01;25.98
20037;BME280;10179;42.640;23.312;2023-06-22T10:29:01;94140.47;;;35.43;25.49
20037;BME280;10179;42.640;23.312;2023-06-22T10:31:26;94142.75;;;35.67;25.81
20037;BME280;10179;42.640;23.312;2023-06-22T10:33:53;94144.81;;;36.11;25.82
20037;BME280;10179;42.640;23.312;2023-06-22T10:36:18;94123.31;;;36.50;25.29
20037;BME280;10179;42.640;23.312;2023-06-22T10:38:44;94112.13;;;36.70;24.52
20037;BME280;10179;42.640;23.312;2023-06-22T10:41:10;94130.22;;;36.82;23.89
20037;BME280;10179;42.640;23.312;2023-06-22T10:43:36;94105.78;;;36.59;24.62
20037;BME280;10179;42.640;23.312;2023-06-22T10:46:01;94116.34;;;36.60;24.80
20037;BME280;10179;42.640;23.312;2023-06-22T10:48:26;94077.97;;;36.53;24.38
20037;BME280;10179;42.640;23.312;2023-06-22T10:50:52;94104.47;;;36.90;23.93
20037;BME280;10179;42.640;23.312;2023-06-22T10:53:18;93948.69;;;36.22;23.32
20037;BME280;10179;42.640;23.312;2023-06-22T10:55:44;94110.41;;;37.76;23.15
20037;BME280;10179;42.640;23.312;2023-06-22T10:58:09;94124.25;;;38.18;21.86
20037;BME280;10179;42.640;23.312;2023-06-22T11:00:35;94097.19;;;37.99;22.27
20037;BME280;10179;42.640;23.312;2023-06-22T11:03:00;94083.00;;;37.83;23.01
20037;BME280;10179;42.640;23.312;2023-06-22T11:05:25;94115.19;;;37.93;23.21
20037;BME280;10179;42.640;23.312;2023-06-22T11:07:51;94091.19;;;37.68;22.71
20037;BME280;10179;42.640;23.312;2023-06-22T11:10:16;94114.66;;;37.62;23.02
20037;BME280;10179;42.640;23.312;2023-06-22T11:12:42;94085.50;;;37.25;23.25
20037;BME280;10179;42.640;23.312;2023-06-22T11:15:08;94099.25;;;37.33;23.47
20037;BME280;10179;42.640;23.312;2023-06-22T11:17:34;94066.59;;;37.06;23.24
20037;BME280;10179;42.640;23.312;2023-06-22T11:20:01;94113.63;;;37.15;23.80
20037;BME280;10179;42.640;23.312;2023-06-22T11:22:27;94051.16;;;36.28;24.06
20037;BME280;10179;42.640;23.312;2023-06-22T11:24:52;94084.16;;;36.02;24.73
20037;BME280;10179;42.640;23.312;2023-06-22T11:27:18;94065.78;;;35.31;25.04
20037;BME280;10179;42.640;23.312;2023-06-22T11:29:43;94002.31;;;34.55;25.50
20037;BME280;10179;42.640;23.312;2023-06-22T11:32:09;94088.75;;;34.74;25.84
20037;BME280;10179;42.640;23.312;2023-06-22T11:34:34;94107.25;;;34.61;26.31
20037;BME280;10179;42.640;23.312;2023-06-22T11:37:00;94076.53;;;34.18;26.58
20037;BME280;10179;42.640;23.312;2023-06-22T11:39:25;94021.69;;;33.77;26.86
20037;BME280;10179;42.640;23.312;2023-06-22T11:41:51;94094.06;;;34.17;27.44
20037;BME280;10179;42.640;23.312;2023-06-22T11:44:16;94105.34;;;34.15;27.52
20037;BME280;10179;42.640;23.312;2023-06-22T11:46:41;94053.13;;;33.71;27.40
20037;BME280;10179;42.640;23.312;2023-06-22T11:49:07;93996.91;;;33.24;27.32
20037;BME280;10179;42.640;23.312;2023-06-22T11:51:33;94095.88;;;33.67;27.56
20037;BME280;10179;42.640;23.312;2023-06-22T11:53:58;94069.59;;;33.39;27.99
20037;BME280;10179;42.640;23.312;2023-06-22T11:56:24;94024.75;;;33.14;27.48
20037;BME280;10179;42.640;23.312;2023-06-22T11:58:49;93961.59;;;32.69;28.04
20037;BME280;10179;42.640;23.312;2023-06-22T12:01:14;94080.50;;;33.39;28.39
20037;BME280;10179;42.640;23.312;2023-06-22T12:03:41;94040.06;;;33.02;28.67
20037;BME280;10179;42.640;23.312;2023-06-22T12:06:08;94034.63;;;33.02;28.34
20037;BME280;10179;42.640;23.312;2023-06-22T12:08:33;94058.44;;;33.25;29.07
20037;BME280;10179;42.640;23.312;2023-06-22T12:10:59;94089.69;;;33.51;29.35
20037;BME280;10179;42.640;23.312;2023-06-22T12:13:25;93851.22;;;31.94;30.16
20037;BME280;10179;42.640;23.312;2023-06-22T12:15:50;94058.44;;;33.25;30.39
20037;BME280;10179;42.640;23.312;2023-06-22T12:18:17;94098.00;;;33.58;30.62
20037;BME280;10179;42.640;23.312;2023-06-22T12:20:45;94077.06;;;33.42;30.17
20037;BME280;10179;42.640;23.312;2023-06-22T12:23:11;94055.28;;;33.23;30.88
20037;BME280;10179;42.640;23.312;2023-06-22T12:25:36;94097.72;;;33.43;30.86
20037;BME280;10179;42.640;23.312;2023-06-22T12:28:02;94096.41;;;33.37;31.17
20037;BME280;10179;42.640;23.312;2023-06-22T12:30:27;94055.19;;;33.00;32.40
20037;BME280;10179;42.640;23.312;2023-06-22T12:32:53;94088.50;;;33.13;32.54
20037;BME280;10179;42.640;23.312;2023-06-22T12:35:18;94092.88;;;32.98;33.12
20037;BME280;10179;42.640;23.312;2023-06-22T12:37:44;94023.53;;;32.25;33.66
20037;BME280;10179;42.640;23.312;2023-06-22T12:40:10;94137.75;;;32.57;35.00
20037;BME280;10179;42.640;23.312;2023-06-22T12:42:35;94061.88;;;31.88;36.07
20037;BME280;10179;42.640;23.312;2023-06-22T12:45:01;94008.69;;;31.31;37.52
20037;BME280;10179;42.640;23.312;2023-06-22T12:47:26;94114.28;;;31.60;38.01
20037;BME280;10179;42.640;23.312;2023-06-22T12:49:52;94112.47;;;31.24;38.59
20037;BME280;10179;42.640;23.312;2023-06-22T12:52:17;94042.41;;;30.37;40.21
20037;BME280;10179;42.640;23.312;2023-06-22T12:54:42;94126.44;;;30.49;40.89